ADDS TAF Board (Experimental) INFO

IDs: Format: Expanded Condensed

Updated at: 1913 UTC 23 Oct 2014

KSAN - San Diego Intl Arpt, CA, US

Issued at 1729 UTC 23 Oct 2014
Time1851Z23/20Z23/21Z23/22Z23/23Z24/00Z24/01Z24/02Z24/03Z24/04Z24/05Z24/06Z24/07Z24/08Z
TypeOBSPRVLPRVLPRVLPRVLPRVLPRVLPRVLPRVLPRVLPRVLPRVLPRVLPRVL
VIS10>6>6>6>6>6>6>6>6>6>6>6>6>6
CIG----------------------------
CoverFEWFEWFEWFEWFEWFEWFEWSKCSKCSKCSKCSKCSKCSKC
FltCat--VFRVFRVFRVFRVFRVFRVFRVFRVFRVFRVFRVFRVFR
WX----------------------------
WDir310290290290290290290VRBVRBVRBVRBVRBVRBVRB
WSpd78888883333333
WGst----------------------------
R09/27
XWnd3111111VRBVRBVRBVRBVRBVRBVRB
HWnd-6-8-8-8-8-8-8VRBVRBVRBVRBVRBVRBVRB
Raw TAF
KSAN 231729Z 2318/2424 VRB04KT P6SM FEW200
  FM232000 29008KT P6SM FEW200
  FM240200 VRB03KT P6SM SKC
  TEMPO 2410/2414 5SM BR FEW002
  FM241900 27007KT P6SM SKC


Raw METAR
KSAN 231851Z 31007KT 10SM FEW200 23/15 A3000 RMK AO2 SLP157 T02280150

TAF Board Legend

Hazard VFR MVFR IFR LIFR
Visibility (sm) >5 3≤X≤5 1≤X<3 <1
Ceiling (100 ft) >30 10≤X≤30 5≤X<10 <5
Wind Speed (kt) <10 10≤X<20 20≤X<30 ≥30
Wind Gust (kt) <15 15≤X<25 25≤X<35 ≥35
Weather No Wx Reported VCTS,-TS,-FZRA TS,FZRA +TS,+FZRA


Page loaded:  19:13 UTC  |   12:13 PM Pacific  |   01:13 PM Mountain  |   02:13 PM Central  |   03:13 PM Eastern

 

ADVISORIES

FORECASTS

FORECASTS

OBSERVATIONS

USER TOOLS

ABOUT US